createdAt,value
2023-01-11T00:01:53.513Z,100702.00
2023-01-11T00:04:21.146Z,100712.56
2023-01-11T00:06:48.463Z,100700.38
2023-01-11T00:09:16.109Z,100707.09
2023-01-11T00:11:43.312Z,100706.03
2023-01-11T00:14:10.718Z,100707.03
2023-01-11T00:16:37.980Z,100702.06
2023-01-11T00:19:05.314Z,100708.06
2023-01-11T00:21:32.692Z,100709.22
2023-01-11T00:24:00.040Z,100705.41
2023-01-11T00:26:27.346Z,100704.06
2023-01-11T00:28:54.781Z,100695.47
2023-01-11T00:31:22.299Z,100700.84
2023-01-11T00:33:49.634Z,100692.50
2023-01-11T00:36:16.814Z,100693.59
2023-01-11T00:38:44.214Z,100698.78
2023-01-11T00:41:32.164Z,100699.28
2023-01-11T00:44:18.067Z,100691.22
2023-01-11T00:47:03.756Z,100690.72
2023-01-11T00:49:31.189Z,100685.78
2023-01-11T00:51:58.390Z,100687.31
2023-01-11T00:54:25.742Z,100668.94
2023-01-11T00:56:52.993Z,100678.66
2023-01-11T00:59:20.285Z,100670.66
2023-01-11T01:01:47.692Z,100663.81
2023-01-11T01:04:14.953Z,100662.44
2023-01-11T01:06:42.227Z,100668.75
2023-01-11T01:09:09.603Z,100666.13
2023-01-11T01:11:37.118Z,100653.31
2023-01-11T01:14:22.863Z,100656.97
2023-01-11T01:16:50.095Z,100666.72
2023-01-11T01:19:17.378Z,100671.31
2023-01-11T01:21:44.611Z,100661.00
2023-01-11T01:24:11.924Z,100657.28
2023-01-11T01:26:39.357Z,100648.75
2023-01-11T01:29:07.305Z,100649.78
2023-01-11T01:31:34.554Z,100650.22
2023-01-11T01:34:01.889Z,100649.38
2023-01-11T01:36:29.131Z,100651.44
2023-01-11T01:38:56.288Z,100636.78
2023-01-11T01:41:23.621Z,100640.53
2023-01-11T01:43:51.977Z,100630.22
2023-01-11T01:46:20.475Z,100640.34
2023-01-11T01:48:53.966Z,100630.28
2023-01-11T01:51:26.090Z,100636.53
2023-01-11T01:53:56.881Z,100624.38
2023-01-11T01:56:51.822Z,100632.00
2023-01-11T01:59:20.455Z,100629.06
2023-01-11T02:01:48.310Z,100617.63
2023-01-11T02:04:23.646Z,100631.34
2023-01-11T02:06:55.079Z,100628.34
2023-01-11T02:09:29.456Z,100624.97
2023-01-11T02:11:57.548Z,100633.19
2023-01-11T02:14:25.103Z,100625.81
2023-01-11T02:16:52.369Z,100632.31
2023-01-11T02:19:24.281Z,100635.47
2023-01-11T02:22:12.124Z,100635.25
2023-01-11T02:25:01.578Z,100624.00
2023-01-11T02:27:44.007Z,100627.84
2023-01-11T02:30:21.024Z,100629.22
2023-01-11T02:32:53.969Z,100621.50
2023-01-11T02:35:40.659Z,100619.69
2023-01-11T02:38:24.312Z,100625.81
2023-01-11T02:41:08.117Z,100617.84
2023-01-11T02:44:08.525Z,100601.69
2023-01-11T02:46:41.683Z,100607.69
2023-01-11T02:49:17.358Z,100601.09
2023-01-11T02:51:58.744Z,100615.31
2023-01-11T02:54:26.745Z,100600.28
2023-01-11T02:56:57.313Z,100612.06
2023-01-11T02:59:30.468Z,100607.31
2023-01-11T03:01:58.014Z,100621.03
2023-01-11T03:04:29.894Z,100601.56
2023-01-11T03:07:21.833Z,100612.19
2023-01-11T03:10:07.155Z,100614.72
2023-01-11T03:12:52.130Z,100622.56
2023-01-11T03:16:08.609Z,100604.88
2023-01-11T03:19:18.895Z,100593.91
2023-01-11T03:22:04.747Z,100589.75
2023-01-11T03:24:43.700Z,100600.28
2023-01-11T03:27:22.454Z,100601.91
2023-01-11T03:29:53.739Z,100601.56
2023-01-11T03:32:36.943Z,100608.13
2023-01-11T03:35:28.345Z,100609.19
2023-01-11T03:38:11.660Z,100614.38
2023-01-11T03:40:46.790Z,100619.81
2023-01-11T03:43:15.287Z,100618.44
2023-01-11T03:45:50.425Z,100629.41
2023-01-11T03:48:21.129Z,100617.75
2023-01-11T03:50:49.803Z,100616.34
2023-01-11T03:53:18.703Z,100618.75
2023-01-11T03:55:48.400Z,100623.75
2023-01-11T03:58:15.776Z,100625.22
2023-01-11T04:00:43.108Z,100630.06
2023-01-11T04:03:12.612Z,100619.91
2023-01-11T04:05:43.693Z,100616.31
2023-01-11T04:08:11.480Z,100620.16
2023-01-11T04:10:39.406Z,100621.28
2023-01-11T04:13:06.631Z,100637.56
2023-01-11T04:15:34.798Z,100627.44
2023-01-11T04:18:05.823Z,100627.31
2023-01-11T04:20:39.271Z,100620.16
2023-01-11T04:23:08.251Z,100635.28
2023-01-11T04:25:35.457Z,100633.69
2023-01-11T04:28:02.657Z,100614.72
2023-01-11T04:30:29.945Z,100633.34
2023-01-11T04:33:00.589Z,100655.28
2023-01-11T04:35:27.799Z,100650.41
2023-01-11T04:37:56.261Z,100651.13
2023-01-11T04:40:24.871Z,100654.50
2023-01-11T04:42:52.399Z,100660.78
2023-01-11T04:45:19.795Z,100664.47
2023-01-11T04:47:48.778Z,100671.13
2023-01-11T04:50:16.088Z,100667.41
2023-01-11T04:52:43.332Z,100683.78
2023-01-11T04:55:10.488Z,100685.25
2023-01-11T04:57:37.820Z,100697.53
2023-01-11T05:00:10.618Z,100706.41
2023-01-11T05:02:39.359Z,100710.63
2023-01-11T05:05:07.521Z,100709.53
2023-01-11T05:07:34.789Z,100716.75
2023-01-11T05:10:02.682Z,100720.88
2023-01-11T05:12:30.001Z,100732.03
2023-01-11T05:14:57.201Z,100745.22
2023-01-11T05:17:24.508Z,100748.66
2023-01-11T05:19:51.742Z,100740.50
2023-01-11T05:22:18.959Z,100742.34
2023-01-11T05:24:46.271Z,100754.72
2023-01-11T05:27:13.870Z,100767.28
2023-01-11T05:29:41.126Z,100796.22
2023-01-11T05:32:08.612Z,100782.31
2023-01-11T05:34:35.940Z,100781.00
2023-01-11T05:37:03.246Z,100779.34
2023-01-11T05:39:30.506Z,100790.53
2023-01-11T05:41:57.880Z,100797.19
2023-01-11T05:44:43.751Z,100808.72
2023-01-11T05:47:11.091Z,100808.78
2023-01-11T05:49:38.320Z,100816.44
2023-01-11T05:52:05.738Z,100819.75
2023-01-11T05:54:33.003Z,100799.16
2023-01-11T05:57:00.281Z,100801.28
2023-01-11T05:59:27.549Z,100810.19
2023-01-11T06:01:54.900Z,100815.09
2023-01-11T06:04:22.286Z,100825.94
2023-01-11T06:06:49.767Z,100822.06
2023-01-11T06:09:17.057Z,100829.22
2023-01-11T06:11:44.401Z,100833.44
2023-01-11T06:14:11.716Z,100830.69
2023-01-11T06:16:39.383Z,100825.28
2023-01-11T06:19:07.141Z,100836.88
2023-01-11T06:21:35.596Z,100845.13
2023-01-11T06:24:02.872Z,100849.66
2023-01-11T06:26:30.121Z,100840.59
2023-01-11T06:28:57.352Z,100848.19
2023-01-11T06:31:24.669Z,100854.50
2023-01-11T06:33:51.949Z,100854.84
2023-01-11T06:36:19.420Z,100853.16
2023-01-11T06:38:46.784Z,100862.84
2023-01-11T06:41:14.123Z,100874.34
2023-01-11T06:43:42.149Z,100881.56
2023-01-11T06:46:11.978Z,100878.63
2023-01-11T06:48:39.750Z,100887.97
2023-01-11T06:51:07.151Z,100891.41
2023-01-11T06:53:34.454Z,100896.50
2023-01-11T06:56:01.963Z,100898.59
2023-01-11T06:58:29.575Z,100905.31
2023-01-11T07:00:57.916Z,100915.69
2023-01-11T07:03:25.852Z,100899.22
2023-01-11T07:05:53.990Z,100900.19
2023-01-11T07:08:21.382Z,100909.00
2023-01-11T07:10:48.849Z,100899.84
2023-01-11T07:13:17.271Z,100912.19
2023-01-11T07:15:45.947Z,100909.94
2023-01-11T07:18:13.283Z,100907.44
2023-01-11T07:20:41.178Z,100909.03
2023-01-11T07:23:08.540Z,100917.28
2023-01-11T07:25:36.435Z,100914.41
2023-01-11T07:28:06.474Z,100920.00
2023-01-11T07:30:47.902Z,100925.69
2023-01-11T07:33:23.425Z,100928.25
2023-01-11T07:35:50.687Z,100927.75
2023-01-11T07:38:17.926Z,100934.69
2023-01-11T07:40:45.160Z,100942.31
2023-01-11T07:43:15.765Z,100945.25
2023-01-11T07:45:50.798Z,100957.63
2023-01-11T07:48:21.391Z,100966.88
2023-01-11T07:50:49.218Z,100973.41
2023-01-11T07:53:16.673Z,100990.16
2023-01-11T07:55:44.266Z,100989.34
2023-01-11T07:58:12.758Z,100995.03
2023-01-11T08:00:43.369Z,101004.31
2023-01-11T08:03:11.027Z,101013.28
2023-01-11T08:05:38.538Z,101018.66
2023-01-11T08:08:06.388Z,101014.91
2023-01-11T08:10:34.232Z,101014.56
2023-01-11T08:13:20.814Z,101014.38
2023-01-11T08:15:48.179Z,101031.72
2023-01-11T08:18:17.101Z,101042.63
2023-01-11T08:20:45.697Z,101036.13
2023-01-11T08:23:13.096Z,101052.38
2023-01-11T08:25:40.463Z,101045.66
2023-01-11T08:28:07.822Z,101053.97
2023-01-11T08:30:36.183Z,101062.13
2023-01-11T08:33:05.121Z,101063.03
2023-01-11T08:35:36.960Z,101064.38
2023-01-11T08:38:04.225Z,101073.84
2023-01-11T08:40:31.563Z,101075.97
2023-01-11T08:42:59.052Z,101074.34
2023-01-11T08:45:26.567Z,101069.75
2023-01-11T08:47:54.476Z,101086.19
2023-01-11T08:50:22.530Z,101088.81
2023-01-11T08:52:51.329Z,101084.09
2023-01-11T08:55:19.784Z,101084.84
2023-01-11T08:57:47.249Z,101085.41
2023-01-11T09:00:15.279Z,101093.88
2023-01-11T09:02:42.861Z,101097.44
2023-01-11T09:05:10.260Z,101102.44
2023-01-11T09:07:37.709Z,101099.63
2023-01-11T09:10:05.750Z,101109.34
2023-01-11T09:12:33.091Z,101111.03
2023-01-11T09:15:00.650Z,101111.34
2023-01-11T09:17:28.006Z,101123.44
2023-01-11T09:19:55.356Z,101138.59
2023-01-11T09:22:22.980Z,101140.72
2023-01-11T09:24:50.396Z,101140.81
2023-01-11T09:27:17.687Z,101148.94
2023-01-11T09:29:46.104Z,101146.81
2023-01-11T09:32:13.484Z,101148.00
2023-01-11T09:34:42.881Z,101152.78
2023-01-11T09:37:10.290Z,101160.13
2023-01-11T09:39:39.135Z,101168.38
2023-01-11T09:42:06.957Z,101167.75
2023-01-11T09:44:45.887Z,101175.91
2023-01-11T09:47:31.893Z,101163.50
2023-01-11T09:50:03.777Z,101171.25
2023-01-11T09:52:39.777Z,101181.19
2023-01-11T09:55:15.223Z,101205.16
2023-01-11T09:58:03.267Z,101200.75
2023-01-11T10:00:49.328Z,101197.88
2023-01-11T10:03:39.956Z,101211.47
2023-01-11T10:06:18.483Z,101209.13
2023-01-11T10:18:29.667Z,101224.09
2023-01-11T10:18:39.289Z,101222.47
2023-01-11T10:20:46.755Z,101212.16
2023-01-11T10:23:28.683Z,101216.16
2023-01-11T10:25:58.944Z,101214.72
2023-01-11T10:28:46.133Z,101213.84
2023-01-11T10:31:44.959Z,101211.03
2023-01-11T10:34:38.740Z,101218.28
2023-01-11T10:37:22.652Z,101222.56
2023-01-11T10:40:25.247Z,101221.16
2023-01-11T10:43:12.956Z,101217.53
2023-01-11T10:45:44.620Z,101204.00
2023-01-11T10:48:24.662Z,101203.72
2023-01-11T10:51:32.083Z,101204.88
2023-01-11T10:54:14.401Z,101216.22
2023-01-11T10:57:02.669Z,101224.13
2023-01-11T10:59:50.948Z,101232.25
2023-01-11T11:02:38.578Z,101240.41
2023-01-11T11:05:11.809Z,101243.66
2023-01-11T11:08:14.687Z,101251.47
2023-01-11T11:10:57.442Z,101253.38
2023-01-11T11:13:37.685Z,101249.72
2023-01-11T11:16:19.972Z,101262.75
2023-01-11T11:18:50.790Z,101249.22
2023-01-11T11:21:24.116Z,101252.16
2023-01-11T11:24:04.225Z,101229.38
2023-01-11T11:26:38.208Z,101240.94
2023-01-11T11:29:08.107Z,101250.06
2023-01-11T11:31:43.042Z,101256.84
2023-01-11T11:34:16.559Z,101259.69
2023-01-11T11:36:46.212Z,101269.41
2023-01-11T11:39:29.905Z,101269.97
2023-01-11T11:42:05.640Z,101266.81
2023-01-11T11:44:33.143Z,101261.28
2023-01-11T11:47:01.623Z,101269.84
2023-01-11T11:49:39.798Z,101264.41
2023-01-11T11:52:07.842Z,101269.00
2023-01-11T11:54:37.529Z,101267.81
2023-01-11T11:57:15.157Z,101269.81
2023-01-11T11:59:47.937Z,101275.56
2023-01-11T12:02:36.499Z,101270.88
2023-01-11T12:05:09.609Z,101277.63
2023-01-11T12:07:54.335Z,101279.78
2023-01-11T12:10:25.325Z,101277.13
2023-01-11T12:12:59.470Z,101288.59
2023-01-11T12:15:31.440Z,101283.00
2023-01-11T12:18:22.265Z,101285.34
2023-01-11T12:20:49.533Z,101297.03
2023-01-11T12:23:24.055Z,101281.50
2023-01-11T12:26:25.168Z,101277.84
2023-01-11T12:29:14.367Z,101272.19
2023-01-11T12:31:50.727Z,101273.03
2023-01-11T12:34:55.476Z,101275.34
2023-01-11T12:37:53.919Z,101272.47
2023-01-11T12:40:35.286Z,101273.56
2023-01-11T12:43:36.729Z,101266.56
2023-01-11T12:46:16.973Z,101276.16
2023-01-11T12:49:20.823Z,101282.69
2023-01-11T12:52:39.188Z,101273.75
2023-01-11T12:55:41.427Z,101271.06
2023-01-11T12:58:18.168Z,101276.34
2023-01-11T13:00:52.378Z,101286.25
2023-01-11T13:03:29.630Z,101275.91
2023-01-11T13:06:08.809Z,101277.81
2023-01-11T13:08:48.945Z,101271.63
2023-01-11T13:11:35.302Z,101259.25
2023-01-11T13:14:14.987Z,101269.19
2023-01-11T13:17:20.131Z,101271.28
2023-01-11T13:19:53.387Z,101277.69
2023-01-11T13:22:24.895Z,101280.50
2023-01-11T13:24:53.019Z,101283.16
2023-01-11T13:27:25.202Z,101290.41
2023-01-11T13:29:55.861Z,101291.94
2023-01-11T13:32:25.211Z,101293.19
2023-01-11T13:34:52.519Z,101305.00
2023-01-11T13:37:24.261Z,101300.91
2023-01-11T13:40:03.844Z,101298.88
2023-01-11T13:42:35.795Z,101287.50
2023-01-11T13:45:19.138Z,101281.41
2023-01-11T13:47:57.108Z,101281.81
2023-01-11T13:50:31.293Z,101293.00
2023-01-11T13:53:09.923Z,101290.03
2023-01-11T13:55:45.406Z,101296.34
2023-01-11T13:58:25.527Z,101292.31
2023-01-11T14:00:54.668Z,101297.41
2023-01-11T14:03:31.166Z,101309.94
2023-01-11T14:06:07.491Z,101323.38
2023-01-11T14:08:43.598Z,101311.66
2023-01-11T14:11:20.395Z,101310.91
2023-01-11T14:14:18.176Z,101317.38
2023-01-11T14:16:48.206Z,101313.78
2023-01-11T14:19:37.607Z,101323.38
2023-01-11T14:22:23.598Z,101314.88
2023-01-11T14:25:15.417Z,101306.25
2023-01-11T14:28:10.515Z,101300.41
2023-01-11T14:30:46.533Z,101300.69
2023-01-11T14:33:31.882Z,101305.63
2023-01-11T14:36:05.169Z,101309.78
2023-01-11T14:38:44.648Z,101319.81
2023-01-11T14:41:39.892Z,101324.75
2023-01-11T14:44:25.343Z,101323.31
2023-01-11T14:46:52.652Z,101319.94
2023-01-11T14:49:44.857Z,101323.53
2023-01-11T14:52:16.006Z,101325.28
2023-01-11T14:54:48.067Z,101320.13
2023-01-11T14:57:40.587Z,101320.44
2023-01-11T15:00:19.869Z,101325.19
2023-01-11T15:02:51.570Z,101331.06
2023-01-11T15:05:31.257Z,101331.38
2023-01-11T15:08:12.952Z,101332.06
2023-01-11T15:10:56.820Z,101329.31
2023-01-11T15:13:29.666Z,101323.72
2023-01-11T15:16:28.971Z,101321.78
2023-01-11T15:18:56.395Z,101326.50
2023-01-11T15:21:25.389Z,101315.78
2023-01-11T15:23:54.929Z,101329.44
2023-01-11T15:26:24.299Z,101331.06
2023-01-11T15:28:52.322Z,101334.19
2023-01-11T15:31:49.600Z,101332.91
2023-01-11T15:34:47.877Z,101339.53
2023-01-11T15:37:28.796Z,101344.69
2023-01-11T15:40:04.778Z,101350.03
2023-01-11T15:43:02.572Z,101340.47
2023-01-11T15:46:16.302Z,101344.03
2023-01-11T15:49:21.552Z,101347.38
2023-01-11T15:51:57.858Z,101337.97
2023-01-11T15:54:31.539Z,101329.94
2023-01-11T15:57:27.077Z,101340.25
2023-01-11T16:00:00.223Z,101344.28
2023-01-11T16:02:54.686Z,101341.03
2023-01-11T16:05:27.086Z,101341.00
2023-01-11T16:07:54.307Z,101344.19
2023-01-11T16:10:45.004Z,101341.47
2023-01-11T16:13:34.769Z,101352.13
2023-01-11T16:16:17.453Z,101353.88
2023-01-11T16:18:48.953Z,101360.72
2023-01-11T16:21:21.508Z,101369.69
2023-01-11T16:23:49.046Z,101375.75
2023-01-11T16:26:18.201Z,101378.38
2023-01-11T16:28:54.545Z,101386.16
2023-01-11T16:31:21.984Z,101386.66
2023-01-11T16:33:49.934Z,101392.22
2023-01-11T16:36:22.448Z,101393.31
2023-01-11T16:38:55.444Z,101393.31
2023-01-11T16:41:24.132Z,101393.91
2023-01-11T16:44:00.594Z,101382.13
2023-01-11T16:46:46.328Z,101370.44
2023-01-11T16:49:17.951Z,101383.38
2023-01-11T16:51:45.575Z,101378.31
2023-01-11T16:54:33.311Z,101383.69
2023-01-11T16:57:01.648Z,101392.34
2023-01-11T16:59:34.887Z,101390.06
2023-01-11T17:02:06.178Z,101387.00
2023-01-11T17:04:34.564Z,101397.72
2023-01-11T17:07:19.863Z,101406.53
2023-01-11T17:09:47.424Z,101403.00
2023-01-11T17:12:21.543Z,101405.72
2023-01-11T17:14:58.935Z,101403.56
2023-01-11T17:17:27.874Z,101402.53
2023-01-11T17:19:56.547Z,101403.69
2023-01-11T17:22:29.545Z,101400.94
2023-01-11T17:25:00.013Z,101400.72
2023-01-11T17:27:35.589Z,101393.97
2023-01-11T17:30:05.175Z,101398.06
2023-01-11T17:32:44.584Z,101399.88
2023-01-11T17:35:23.424Z,101399.34
2023-01-11T17:37:53.382Z,101405.44
2023-01-11T17:40:22.783Z,101413.13
2023-01-11T17:43:09.306Z,101408.19
2023-01-11T17:45:37.414Z,101413.19
2023-01-11T17:48:15.804Z,101405.22
2023-01-11T17:50:48.371Z,101419.47
2023-01-11T17:53:18.495Z,101407.38
2023-01-11T17:55:52.057Z,101411.00
2023-01-11T17:58:38.268Z,101409.84
2023-01-11T18:01:08.243Z,101401.81
2023-01-11T18:03:42.484Z,101402.94
2023-01-11T18:06:14.546Z,101402.44
2023-01-11T18:08:47.505Z,101403.13
2023-01-11T18:11:26.226Z,101396.00
2023-01-11T18:13:55.766Z,101399.00
2023-01-11T18:16:23.468Z,101392.38
2023-01-11T18:18:52.104Z,101395.63
2023-01-11T18:21:25.482Z,101398.75
2023-01-11T18:24:15.771Z,101393.41
2023-01-11T18:26:43.894Z,101394.38
2023-01-11T18:29:37.232Z,101394.38
2023-01-11T18:32:12.065Z,101383.13
2023-01-11T18:34:39.955Z,101382.94
2023-01-11T18:37:07.351Z,101374.31
2023-01-11T18:39:35.529Z,101380.31
2023-01-11T18:42:08.214Z,101379.56
2023-01-11T18:44:39.900Z,101386.28
2023-01-11T18:47:21.017Z,101387.75
2023-01-11T18:49:49.861Z,101380.91
2023-01-11T18:52:18.569Z,101384.06
2023-01-11T18:54:45.930Z,101391.66
2023-01-11T18:57:13.252Z,101389.56
2023-01-11T18:59:40.608Z,101395.91
2023-01-11T19:02:23.953Z,101409.53
2023-01-11T19:04:52.556Z,101417.63
2023-01-11T19:07:20.200Z,101415.78
2023-01-11T19:09:47.716Z,101426.84
2023-01-11T19:12:15.903Z,101424.72
2023-01-11T19:14:43.378Z,101427.63
2023-01-11T19:17:11.298Z,101424.44
2023-01-11T19:19:38.565Z,101417.25
2023-01-11T19:22:06.323Z,101410.56
2023-01-11T19:24:33.669Z,101415.56
2023-01-11T19:27:01.739Z,101418.84
2023-01-11T19:29:29.079Z,101412.19
2023-01-11T19:31:56.407Z,101419.56
2023-01-11T19:34:24.398Z,101416.00
2023-01-11T19:36:51.988Z,101401.03
2023-01-11T19:39:19.713Z,101406.44
2023-01-11T19:42:01.411Z,101399.03
2023-01-11T19:44:33.773Z,101400.47
2023-01-11T19:47:11.554Z,101392.63
2023-01-11T19:49:40.671Z,101393.09
2023-01-11T19:52:18.978Z,101403.00
2023-01-11T19:54:46.963Z,101398.25
2023-01-11T19:57:18.774Z,101397.50
2023-01-11T19:59:47.115Z,101389.38
2023-01-11T20:02:17.067Z,101387.69
2023-01-11T20:04:44.476Z,101388.13
2023-01-11T20:07:12.624Z,101402.84
2023-01-11T20:09:39.956Z,101396.41
2023-01-11T20:12:09.187Z,101394.56
2023-01-11T20:14:38.271Z,101393.97
2023-01-11T20:17:05.573Z,101393.94
2023-01-11T20:19:32.844Z,101388.59
2023-01-11T20:22:00.119Z,101387.97
2023-01-11T20:24:30.452Z,101386.69
2023-01-11T20:26:59.201Z,101380.19
2023-01-11T20:29:26.665Z,101373.72
2023-01-11T20:31:53.958Z,101363.19
2023-01-11T20:34:21.425Z,101372.22
2023-01-11T20:36:49.049Z,101361.72
2023-01-11T20:39:17.516Z,101367.34
2023-01-11T20:41:47.721Z,101370.44
2023-01-11T20:44:16.078Z,101375.75
2023-01-11T20:46:46.271Z,101377.44
2023-01-11T20:49:15.164Z,101362.81
2023-01-11T20:51:42.943Z,101371.88
2023-01-11T20:54:10.736Z,101371.44
2023-01-11T20:56:38.736Z,101369.50
2023-01-11T20:59:07.356Z,101376.63
2023-01-11T21:01:36.262Z,101376.81
2023-01-11T21:04:08.902Z,101368.22
2023-01-11T21:06:38.993Z,101371.59
2023-01-11T21:09:07.772Z,101366.44
2023-01-11T21:11:35.691Z,101369.28
2023-01-11T21:14:04.417Z,101367.97
2023-01-11T21:16:32.338Z,101364.09
2023-01-11T21:19:01.630Z,101370.25
2023-01-11T21:21:31.007Z,101358.38
2023-01-11T21:24:00.507Z,101377.88
2023-01-11T21:26:29.138Z,101373.78
2023-01-11T21:29:01.397Z,101373.84
2023-01-11T21:31:31.073Z,101370.69
2023-01-11T21:33:59.177Z,101380.56
2023-01-11T21:36:28.369Z,101364.59
2023-01-11T21:38:56.853Z,101367.94
2023-01-11T21:41:45.399Z,101363.72
2023-01-11T21:44:13.695Z,101351.28
2023-01-11T21:46:41.634Z,101352.34
2023-01-11T21:49:09.332Z,101348.22
2023-01-11T21:51:38.396Z,101349.59
2023-01-11T21:54:07.665Z,101351.00
2023-01-11T21:56:35.296Z,101354.25
2023-01-11T21:59:02.741Z,101343.28
2023-01-11T22:01:30.221Z,101349.97
2023-01-11T22:03:57.840Z,101367.47
2023-01-11T22:06:25.204Z,101353.47
2023-01-11T22:08:52.947Z,101352.91
2023-01-11T22:11:20.307Z,101347.31
2023-01-11T22:13:47.591Z,101337.19
2023-01-11T22:16:17.529Z,101342.31
2023-01-11T22:18:45.694Z,101340.16
2023-01-11T22:21:15.448Z,101339.13
2023-01-11T22:23:42.936Z,101338.25
2023-01-11T22:26:12.861Z,101326.81
2023-01-11T22:28:59.302Z,101341.34
2023-01-11T22:31:28.222Z,101340.38
2023-01-11T22:33:55.732Z,101350.75
2023-01-11T22:36:24.368Z,101352.13
2023-01-11T22:38:52.076Z,101352.59
2023-01-11T22:41:19.865Z,101330.41
2023-01-11T22:43:47.384Z,101340.03
2023-01-11T22:46:17.573Z,101357.00
2023-01-11T22:48:46.860Z,101358.31
2023-01-11T22:51:15.884Z,101357.06
2023-01-11T22:53:44.930Z,101368.47
2023-01-11T22:56:13.459Z,101360.06
2023-01-11T22:58:41.057Z,101356.47
2023-01-11T23:01:17.014Z,101365.59
2023-01-11T23:03:47.631Z,101389.38
2023-01-11T23:06:20.779Z,101395.66
2023-01-11T23:08:48.389Z,101391.63
2023-01-11T23:11:36.501Z,101397.81
2023-01-11T23:14:04.966Z,101379.75
2023-01-11T23:16:32.994Z,101381.28
2023-01-11T23:19:00.886Z,101394.03
2023-01-11T23:21:28.639Z,101395.34
2023-01-11T23:23:56.051Z,101404.06
2023-01-11T23:26:23.440Z,101401.66
2023-01-11T23:28:50.927Z,101371.00
2023-01-11T23:31:21.425Z,101380.75
2023-01-11T23:33:51.116Z,101383.25
2023-01-11T23:36:19.447Z,101378.56
2023-01-11T23:38:47.132Z,101382.91
2023-01-11T23:41:34.888Z,101372.38
2023-01-11T23:44:04.440Z,101377.06
2023-01-11T23:46:50.488Z,101373.47
2023-01-11T23:49:18.016Z,101365.25
2023-01-11T23:51:45.530Z,101367.19
2023-01-11T23:54:12.880Z,101365.19
2023-01-11T23:56:40.498Z,101375.66
2023-01-11T23:59:08.078Z,101364.50
